Time;durP1;ratioP1;P1;durP2;ratioP2;P2;SDS_P1;SDS_P2;PMS_P1;PMS_P2;Temp;Humidity;BMP_temperature;BMP_pressure;BME280_temperature;BME280_humidity;BME280_pressure;Samples;Min_cycle;Max_cycle;Signal;HPM_P1;HPM_P2
2023/06/13 00:00:35;;;;;;;;;;;20.10;60.20;;;;;;4986937;28;19994;-68
2023/06/13 00:03:00;;;;;;;;;;;20.10;61.00;;;;;;4993598;28;19917;-68
2023/06/13 00:05:26;;;;;;;;;;;20.00;61.20;;;;;;4990995;28;20347;-69
2023/06/13 00:07:52;;;;;;;;;;;20.10;61.80;;;;;;4988641;28;19921;-68
2023/06/13 00:10:17;;;;;;;;;;;20.00;60.90;;;;;;5007513;28;19917;-69
2023/06/13 00:12:49;;;;;;;;;;;20.00;60.70;;;;;;5006340;28;19925;-69
2023/06/13 00:15:15;;;;;;;;;;;20.00;60.90;;;;;;4988368;28;19921;-68
2023/06/13 00:17:41;;;;;;;;;;;19.90;60.50;;;;;;4984963;28;20004;-68
2023/06/13 00:20:08;;;;;;;;;;;19.90;60.50;;;;;;5008095;28;20015;-68
2023/06/13 00:22:34;;;;;;;;;;;19.90;60.60;;;;;;4991832;28;19917;-68
2023/06/13 00:24:59;;;;;;;;;;;19.90;60.90;;;;;;5003559;28;19923;-69
2023/06/13 00:27:25;;;;;;;;;;;19.90;61.20;;;;;;4987188;28;19925;-68
2023/06/13 00:29:51;;;;;;;;;;;19.80;61.00;;;;;;5011007;28;19917;-68
2023/06/13 00:32:19;;;;;;;;;;;19.80;61.10;;;;;;5003222;22;19937;-82
2023/06/13 00:34:48;;;;;;;;;;;19.80;61.50;;;;;;4956354;28;20377;-82
2023/06/13 00:37:16;;;;;;;;;;;19.70;61.20;;;;;;4992782;28;19964;-83
2023/06/13 00:39:48;;;;;;;;;;;19.70;61.60;;;;;;4990411;28;19918;-82
2023/06/13 00:42:16;;;;;;;;;;;19.70;61.80;;;;;;4957759;28;19925;-83
2023/06/13 00:44:50;;;;;;;;;;;19.70;62.00;;;;;;4973822;28;19921;-83
2023/06/13 00:47:26;;;;;;;;;;;19.60;62.10;;;;;;4969088;28;20369;-82
2023/06/13 00:49:54;;;;;;;;;;;19.60;61.50;;;;;;4975093;28;19926;-83
2023/06/13 00:52:28;;;;;;;;;;;19.50;62.00;;;;;;4959055;28;20302;-82
2023/06/13 00:54:54;;;;;;;;;;;19.50;62.30;;;;;;4960037;28;20440;-83
2023/06/13 00:57:20;;;;;;;;;;;19.50;62.30;;;;;;4967536;28;19918;-84
2023/06/13 01:00:00;;;;;;;;;;;19.50;62.30;;;;;;4974108;28;19918;-83
2023/06/13 01:02:28;;;;;;;;;;;19.40;62.50;;;;;;4974815;28;19955;-84
2023/06/13 01:04:57;;;;;;;;;;;19.30;63.00;;;;;;4974151;28;19933;-83
2023/06/13 01:07:29;;;;;;;;;;;19.30;63.70;;;;;;4969849;28;20352;-84
2023/06/13 01:09:56;;;;;;;;;;;19.30;63.40;;;;;;4960264;28;19918;-84
2023/06/13 01:12:45;;;;;;;;;;;19.20;63.50;;;;;;4955828;28;19917;-83
2023/06/13 01:15:19;;;;;;;;;;;19.20;63.90;;;;;;4944626;28;19929;-84
2023/06/13 01:17:57;;;;;;;;;;;19.20;64.60;;;;;;4968258;28;20021;-83
2023/06/13 01:20:28;;;;;;;;;;;19.10;64.10;;;;;;4963148;28;19917;-83
2023/06/13 01:23:15;;;;;;;;;;;19.10;64.60;;;;;;4964378;28;19921;-83
2023/06/13 01:26:07;;;;;;;;;;;19.10;64.40;;;;;;4973115;28;20049;-82
2023/06/13 01:28:33;;;;;;;;;;;19.00;65.00;;;;;;4955873;28;19969;-83
2023/06/13 01:31:02;;;;;;;;;;;19.00;64.60;;;;;;4988220;28;19922;-83
2023/06/13 01:33:47;;;;;;;;;;;18.90;64.90;;;;;;4972768;28;19991;-85
2023/06/13 01:36:13;;;;;;;;;;;18.90;65.40;;;;;;4964236;28;19926;-86
2023/06/13 01:38:44;;;;;;;;;;;18.80;65.80;;;;;;4976566;28;20001;-87
2023/06/13 01:41:15;;;;;;;;;;;18.80;64.80;;;;;;4963157;28;20077;-85
2023/06/13 01:43:43;;;;;;;;;;;18.70;65.60;;;;;;4972140;28;19921;-85
2023/06/13 01:46:25;;;;;;;;;;;;;;;;;;;;;
2023/06/13 01:49:02;;;;;;;;;;;18.70;65.30;;;;;;4976723;28;19921;-84
2023/06/13 01:51:33;;;;;;;;;;;18.70;66.10;;;;;;4976580;28;20312;-85
2023/06/13 01:54:15;;;;;;;;;;;18.60;66.20;;;;;;4975806;28;19922;-85
2023/06/13 01:56:50;;;;;;;;;;;18.60;66.70;;;;;;4961230;28;19922;-85
2023/06/13 01:59:29;;;;;;;;;;;18.50;66.60;;;;;;4997062;28;19922;-85
2023/06/13 02:02:00;;;;;;;;;;;18.50;66.80;;;;;;4963235;28;20488;-85
2023/06/13 02:04:48;;;;;;;;;;;18.40;66.70;;;;;;4975103;28;20460;-85
2023/06/13 02:07:14;;;;;;;;;;;18.50;66.60;;;;;;4971428;28;19922;-86
2023/06/13 02:12:49;;;;;;;;;;;18.30;66.90;;;;;;5006343;23;19921;-68
2023/06/13 02:15:15;;;;;;;;;;;18.30;67.10;;;;;;5003488;28;19983;-69
2023/06/13 02:17:40;;;;;;;;;;;18.30;67.20;;;;;;5011756;28;19940;-69
2023/06/13 02:20:06;;;;;;;;;;;18.30;67.90;;;;;;5010040;28;19940;-69
2023/06/13 02:22:35;;;;;;;;;;;18.20;67.80;;;;;;5005812;28;20011;-69
2023/06/13 02:25:00;;;;;;;;;;;18.20;67.70;;;;;;5005448;28;20004;-69
2023/06/13 02:27:26;;;;;;;;;;;18.10;67.60;;;;;;5010276;28;19939;-69
2023/06/13 02:29:52;;;;;;;;;;;18.10;67.40;;;;;;5016497;28;19948;-69
2023/06/13 02:32:18;;;;;;;;;;;18.10;68.10;;;;;;5026761;28;19918;-69
2023/06/13 02:34:44;;;;;;;;;;;18.00;67.80;;;;;;5006370;28;19925;-69
2023/06/13 02:37:10;;;;;;;;;;;18.00;68.70;;;;;;5007171;28;20295;-69
2023/06/13 02:39:36;;;;;;;;;;;18.00;69.00;;;;;;5005132;28;19924;-69
2023/06/13 02:42:01;;;;;;;;;;;17.90;69.10;;;;;;5010586;28;20211;-69
2023/06/13 02:44:27;;;;;;;;;;;17.90;69.20;;;;;;5003033;28;19917;-69
2023/06/13 02:46:53;;;;;;;;;;;17.90;69.20;;;;;;4992796;28;19918;-69
2023/06/13 02:49:18;;;;;;;;;;;17.80;69.20;;;;;;4995429;28;19957;-68
2023/06/13 02:51:47;;;;;;;;;;;17.80;69.60;;;;;;5015211;28;20396;-69
2023/06/13 02:54:12;;;;;;;;;;;17.80;69.60;;;;;;5004468;28;19983;-66
2023/06/13 02:56:38;;;;;;;;;;;17.70;69.30;;;;;;5007484;28;20327;-66
2023/06/13 02:59:04;;;;;;;;;;;17.70;69.40;;;;;;5007702;28;19944;-67
2023/06/13 03:01:29;;;;;;;;;;;17.60;69.60;;;;;;5002921;28;20414;-67
2023/06/13 03:03:55;;;;;;;;;;;17.70;70.20;;;;;;5007658;28;19917;-66
2023/06/13 03:06:20;;;;;;;;;;;17.60;70.20;;;;;;5005352;28;19924;-66
2023/06/13 03:08:47;;;;;;;;;;;17.60;70.40;;;;;;5028812;28;19944;-66
2023/06/13 03:11:13;;;;;;;;;;;17.60;70.70;;;;;;5017017;28;20363;-66
2023/06/13 03:13:38;;;;;;;;;;;17.60;70.80;;;;;;5005966;28;19922;-68
2023/06/13 03:16:06;;;;;;;;;;;17.60;71.10;;;;;;4999797;28;19929;-68
2023/06/13 03:18:32;;;;;;;;;;;17.50;71.20;;;;;;5005286;28;20287;-69
2023/06/13 03:20:57;;;;;;;;;;;17.50;71.60;;;;;;5005496;28;19932;-69
2023/06/13 03:23:23;;;;;;;;;;;17.40;71.90;;;;;;5003022;28;20413;-68
2023/06/13 03:25:51;;;;;;;;;;;17.40;71.90;;;;;;5004281;28;19918;-69
2023/06/13 03:28:17;;;;;;;;;;;17.40;72.20;;;;;;5008008;28;19928;-69
2023/06/13 03:30:42;;;;;;;;;;;17.40;72.00;;;;;;5003785;28;20350;-69
2023/06/13 03:33:09;;;;;;;;;;;17.30;72.00;;;;;;4999879;28;19923;-68
2023/06/13 03:35:35;;;;;;;;;;;17.20;72.60;;;;;;5009043;28;19925;-70
2023/06/13 03:38:00;;;;;;;;;;;17.30;73.10;;;;;;5002962;28;19925;-69
2023/06/13 03:40:26;;;;;;;;;;;17.20;72.90;;;;;;5000804;28;19917;-69
2023/06/13 03:42:51;;;;;;;;;;;17.20;73.00;;;;;;4982114;28;19918;-69
2023/06/13 03:45:17;;;;;;;;;;;17.20;73.40;;;;;;4998897;28;19924;-68
2023/06/13 03:47:45;;;;;;;;;;;17.10;73.40;;;;;;5004529;28;20391;-68
2023/06/13 03:50:11;;;;;;;;;;;17.10;74.00;;;;;;5008215;28;19944;-66
2023/06/13 03:52:36;;;;;;;;;;;17.10;74.20;;;;;;5012693;28;19943;-66
2023/06/13 03:55:02;;;;;;;;;;;17.00;74.60;;;;;;5002988;28;19921;-66
2023/06/13 03:57:31;;;;;;;;;;;17.10;74.40;;;;;;5002835;28;19918;-66
2023/06/13 03:59:57;;;;;;;;;;;17.00;74.60;;;;;;5001548;28;19928;-66
2023/06/13 04:02:22;;;;;;;;;;;17.00;75.00;;;;;;5004224;28;20287;-66
2023/06/13 04:04:48;;;;;;;;;;;17.00;73.60;;;;;;5005195;28;19940;-66
2023/06/13 04:07:13;;;;;;;;;;;16.90;74.80;;;;;;5008347;28;19944;-66
2023/06/13 04:09:39;;;;;;;;;;;17.00;74.90;;;;;;5006436;28;19917;-67
2023/06/13 04:12:05;;;;;;;;;;;17.10;74.70;;;;;;5010946;28;19972;-66
2023/06/13 04:14:30;;;;;;;;;;;17.00;75.00;;;;;;5027082;28;20389;-66
2023/06/13 04:16:57;;;;;;;;;;;17.10;76.10;;;;;;5004403;28;19917;-66
2023/06/13 04:19:23;;;;;;;;;;;17.10;76.10;;;;;;5003402;28;19917;-67
2023/06/13 04:21:51;;;;;;;;;;;17.00;76.00;;;;;;5006335;28;19917;-67
2023/06/13 04:24:17;;;;;;;;;;;17.10;76.10;;;;;;5005123;28;19920;-66
2023/06/13 04:26:45;;;;;;;;;;;17.10;76.00;;;;;;5010878;28;19991;-66
2023/06/13 04:29:13;;;;;;;;;;;17.20;76.00;;;;;;5003781;28;19921;-66
2023/06/13 04:31:41;;;;;;;;;;;17.20;75.90;;;;;;5002905;28;20268;-66
2023/06/13 04:34:07;;;;;;;;;;;17.20;76.00;;;;;;4997791;28;19927;-65
2023/06/13 04:36:35;;;;;;;;;;;17.20;76.00;;;;;;5006544;28;20298;-66
2023/06/13 04:39:06;;;;;;;;;;;17.20;76.30;;;;;;5011101;28;19921;-66
2023/06/13 04:41:35;;;;;;;;;;;17.30;76.00;;;;;;5004530;28;19922;-66
2023/06/13 04:44:10;;;;;;;;;;;17.30;75.40;;;;;;5003632;28;19917;-66
2023/06/13 04:46:38;;;;;;;;;;;17.30;75.60;;;;;;4996848;28;19917;-65
2023/06/13 04:49:04;;;;;;;;;;;17.30;75.90;;;;;;5006461;28;19924;-67
2023/06/13 04:51:32;;;;;;;;;;;17.30;74.90;;;;;;5001690;28;19918;-67
2023/06/13 04:53:58;;;;;;;;;;;17.30;75.40;;;;;;5003891;28;20381;-67
2023/06/13 04:56:25;;;;;;;;;;;17.30;75.30;;;;;;5002966;28;19917;-67
2023/06/13 04:58:52;;;;;;;;;;;17.40;75.40;;;;;;5004232;28;19928;-68
2023/06/13 05:01:19;;;;;;;;;;;17.40;75.80;;;;;;5000863;28;19918;-67
2023/06/13 05:03:45;;;;;;;;;;;17.50;75.70;;;;;;5001789;28;19921;-66
2023/06/13 05:06:12;;;;;;;;;;;17.40;75.40;;;;;;5002109;28;20388;-67
2023/06/13 05:08:38;;;;;;;;;;;17.50;75.30;;;;;;5010696;28;20165;-67
2023/06/13 05:11:03;;;;;;;;;;;17.50;75.60;;;;;;5004693;28;19918;-67
2023/06/13 05:13:29;;;;;;;;;;;17.50;76.10;;;;;;5004068;28;20197;-67
2023/06/13 05:15:55;;;;;;;;;;;17.60;76.60;;;;;;5002563;28;20384;-67
2023/06/13 05:18:24;;;;;;;;;;;17.60;76.00;;;;;;5004156;28;20521;-67
2023/06/13 05:20:50;;;;;;;;;;;17.60;75.90;;;;;;5004995;28;20416;-67
2023/06/13 05:23:15;;;;;;;;;;;17.70;75.30;;;;;;5025719;28;19979;-68
2023/06/13 05:25:41;;;;;;;;;;;17.70;76.10;;;;;;5006264;28;19917;-71
2023/06/13 05:28:06;;;;;;;;;;;17.70;75.50;;;;;;4999852;28;20019;-68
2023/06/13 05:30:32;;;;;;;;;;;17.80;75.60;;;;;;5003800;28;20338;-70
2023/06/13 05:32:57;;;;;;;;;;;17.80;75.20;;;;;;5017293;28;20444;-75
2023/06/13 05:35:23;;;;;;;;;;;17.80;75.50;;;;;;4997326;28;20379;-68
2023/06/13 05:37:52;;;;;;;;;;;17.90;75.80;;;;;;5005899;28;20225;-71
2023/06/13 05:40:17;;;;;;;;;;;17.90;75.30;;;;;;5003582;28;19924;-70
2023/06/13 05:42:43;;;;;;;;;;;17.90;74.60;;;;;;4997905;28;19922;-71
2023/06/13 05:45:09;;;;;;;;;;;18.00;74.30;;;;;;4991811;28;19937;-72
2023/06/13 05:47:35;;;;;;;;;;;18.00;75.20;;;;;;4999214;28;19932;-72
2023/06/13 05:50:01;;;;;;;;;;;18.00;74.50;;;;;;4999493;28;19918;-74
2023/06/13 05:52:26;;;;;;;;;;;18.10;74.10;;;;;;5006459;28;19964;-77
2023/06/13 05:54:52;;;;;;;;;;;18.10;74.50;;;;;;4994219;28;19922;-69
2023/06/13 05:57:17;;;;;;;;;;;18.10;72.80;;;;;;5005273;28;19917;-70
2023/06/13 05:59:43;;;;;;;;;;;18.20;73.80;;;;;;4995847;28;19922;-70
2023/06/13 06:02:10;;;;;;;;;;;18.20;73.30;;;;;;5017105;28;20008;-72
2023/06/13 06:04:36;;;;;;;;;;;18.20;72.90;;;;;;5009107;28;20396;-73
2023/06/13 06:07:02;;;;;;;;;;;18.20;73.00;;;;;;5004074;28;19917;-72
2023/06/13 06:09:28;;;;;;;;;;;18.30;73.00;;;;;;4988598;28;19917;-74
2023/06/13 06:11:53;;;;;;;;;;;18.30;72.40;;;;;;4998042;28;19971;-70
2023/06/13 06:14:19;;;;;;;;;;;18.40;72.20;;;;;;5002359;28;20429;-72
2023/06/13 06:16:45;;;;;;;;;;;18.40;71.60;;;;;;5001492;28;19921;-72
2023/06/13 06:19:10;;;;;;;;;;;18.40;71.50;;;;;;5001791;28;19923;-70
2023/06/13 06:21:36;;;;;;;;;;;18.50;72.00;;;;;;4998323;28;20278;-75
2023/06/13 06:24:01;;;;;;;;;;;18.50;71.50;;;;;;4997859;28;20438;-72
2023/06/13 06:26:29;;;;;;;;;;;18.60;71.20;;;;;;4999393;28;19917;-67
2023/06/13 06:28:55;;;;;;;;;;;18.50;70.30;;;;;;5006911;28;19967;-67
2023/06/13 06:31:21;;;;;;;;;;;18.70;70.00;;;;;;5027008;23;19917;-71
2023/06/13 06:33:46;;;;;;;;;;;18.70;69.20;;;;;;4949247;28;19984;-71
2023/06/13 06:36:12;;;;;;;;;;;18.80;68.90;;;;;;4942000;28;19992;-71
2023/06/13 06:38:40;;;;;;;;;;;18.90;68.00;;;;;;4952777;28;19922;-71
2023/06/13 06:41:05;;;;;;;;;;;19.00;68.70;;;;;;4959608;28;20302;-71
2023/06/13 06:43:31;;;;;;;;;;;19.10;67.80;;;;;;4967351;28;20000;-72
2023/06/13 06:45:57;;;;;;;;;;;19.10;69.10;;;;;;4948578;28;19926;-73
2023/06/13 06:48:22;;;;;;;;;;;19.20;69.00;;;;;;4946750;28;19944;-72
2023/06/13 06:50:51;;;;;;;;;;;19.30;68.20;;;;;;4935988;28;19926;-74
2023/06/13 06:53:17;;;;;;;;;;;19.40;68.70;;;;;;4935539;28;20342;-72
2023/06/13 06:55:42;;;;;;;;;;;19.50;68.70;;;;;;4939036;28;19930;-72
2023/06/13 06:58:08;;;;;;;;;;;19.50;68.60;;;;;;4970659;28;20096;-72
2023/06/13 07:00:36;;;;;;;;;;;19.60;68.00;;;;;;4952540;28;20537;-72
2023/06/13 07:03:01;;;;;;;;;;;19.70;68.40;;;;;;4952888;28;19956;-72
2023/06/13 07:05:27;;;;;;;;;;;19.70;67.70;;;;;;4944265;28;19922;-72
2023/06/13 07:07:52;;;;;;;;;;;19.90;67.70;;;;;;4968909;28;19917;-73
2023/06/13 07:10:18;;;;;;;;;;;20.00;68.40;;;;;;4946315;28;20223;-72
2023/06/13 07:12:43;;;;;;;;;;;20.00;69.30;;;;;;4952119;28;20263;-72
2023/06/13 07:15:09;;;;;;;;;;;20.10;68.60;;;;;;4955131;28;20315;-73
2023/06/13 07:17:34;;;;;;;;;;;20.20;68.60;;;;;;4948448;28;19951;-72
2023/06/13 07:20:00;;;;;;;;;;;20.30;69.00;;;;;;4949834;28;20001;-72
2023/06/13 07:22:25;;;;;;;;;;;20.30;68.00;;;;;;4954537;28;19928;-72
2023/06/13 07:24:51;;;;;;;;;;;20.40;67.90;;;;;;4948541;28;19918;-71
2023/06/13 07:27:17;;;;;;;;;;;20.50;67.50;;;;;;4943042;28;19921;-72
2023/06/13 07:29:43;;;;;;;;;;;20.60;67.00;;;;;;4956978;28;19984;-72
2023/06/13 07:32:09;;;;;;;;;;;20.60;66.20;;;;;;4957527;28;19917;-72
2023/06/13 07:34:34;;;;;;;;;;;20.80;66.90;;;;;;4945349;28;20339;-73
2023/06/13 07:37:00;;;;;;;;;;;20.80;66.70;;;;;;4944083;28;19925;-72
2023/06/13 07:39:26;;;;;;;;;;;20.90;66.70;;;;;;4942315;28;20307;-72
2023/06/13 07:41:51;;;;;;;;;;;21.00;66.40;;;;;;4960056;28;20268;-72
2023/06/13 07:44:17;;;;;;;;;;;21.10;65.40;;;;;;4967283;28;19925;-72
2023/06/13 07:46:43;;;;;;;;;;;21.20;65.50;;;;;;4957450;28;19929;-72
2023/06/13 07:49:08;;;;;;;;;;;21.20;65.90;;;;;;4931701;28;19928;-72
2023/06/13 07:51:34;;;;;;;;;;;21.30;64.40;;;;;;4964476;28;19928;-72
2023/06/13 07:54:00;;;;;;;;;;;21.40;64.70;;;;;;4950291;28;20307;-72
2023/06/13 07:56:25;;;;;;;;;;;21.50;65.30;;;;;;4967915;28;19928;-72
2023/06/13 07:58:51;;;;;;;;;;;21.50;65.30;;;;;;4970779;28;20468;-72
2023/06/13 08:01:17;;;;;;;;;;;21.60;64.50;;;;;;4966562;28;19925;-73
2023/06/13 08:03:44;;;;;;;;;;;21.70;63.30;;;;;;4962932;28;19981;-72
2023/06/13 08:06:09;;;;;;;;;;;21.70;64.30;;;;;;4967302;28;19937;-72
2023/06/13 08:08:35;;;;;;;;;;;21.70;63.90;;;;;;4967195;28;20428;-72
2023/06/13 08:11:00;;;;;;;;;;;21.90;64.20;;;;;;4948853;28;19940;-72
2023/06/13 08:13:26;;;;;;;;;;;21.90;63.30;;;;;;4945035;28;19992;-72
2023/06/13 08:15:51;;;;;;;;;;;22.00;63.80;;;;;;4950466;28;19995;-72
2023/06/13 08:18:17;;;;;;;;;;;22.10;61.90;;;;;;4961187;28;20383;-72
2023/06/13 08:20:43;;;;;;;;;;;22.20;62.20;;;;;;4944484;28;19922;-72
2023/06/13 08:23:08;;;;;;;;;;;22.30;62.90;;;;;;4943911;28;19991;-72
2023/06/13 08:25:34;;;;;;;;;;;22.40;59.90;;;;;;4944398;28;19922;-71
2023/06/13 08:27:59;;;;;;;;;;;22.50;60.40;;;;;;4941922;28;20406;-72
2023/06/13 08:30:25;;;;;;;;;;;22.50;61.60;;;;;;4948341;28;20394;-72
2023/06/13 08:32:53;;;;;;;;;;;22.60;60.40;;;;;;4960783;28;20434;-72
2023/06/13 08:35:19;;;;;;;;;;;22.60;61.00;;;;;;4960012;28;20528;-72
2023/06/13 08:37:44;;;;;;;;;;;22.80;60.60;;;;;;4941912;28;19918;-72
2023/06/13 08:40:10;;;;;;;;;;;22.90;57.80;;;;;;4940711;28;19918;-71
2023/06/13 08:42:39;;;;;;;;;;;23.00;56.90;;;;;;4949448;28;19939;-72
2023/06/13 08:45:09;;;;;;;;;;;23.10;58.80;;;;;;4965091;28;19921;-72
2023/06/13 08:47:35;;;;;;;;;;;23.10;59.50;;;;;;4922407;29;20337;-72
2023/06/13 08:50:01;;;;;;;;;;;23.20;58.00;;;;;;4947577;28;20319;-72
2023/06/13 08:52:34;;;;;;;;;;;23.30;59.00;;;;;;4937114;28;20199;-72
2023/06/13 08:55:03;;;;;;;;;;;23.40;57.90;;;;;;4956892;28;19936;-72
2023/06/13 08:57:29;;;;;;;;;;;23.50;57.90;;;;;;4956782;28;20000;-72
2023/06/13 08:59:55;;;;;;;;;;;23.60;57.20;;;;;;4947596;28;19926;-72
2023/06/13 09:02:23;;;;;;;;;;;23.70;58.60;;;;;;4944590;28;20384;-72
2023/06/13 09:04:50;;;;;;;;;;;23.70;58.30;;;;;;4953963;28;20325;-72
2023/06/13 09:07:21;;;;;;;;;;;23.80;58.40;;;;;;4952648;28;19921;-72
2023/06/13 09:09:48;;;;;;;;;;;23.90;58.00;;;;;;4947472;28;20099;-73
2023/06/13 09:12:15;;;;;;;;;;;24.00;58.50;;;;;;4949283;28;20241;-71
2023/06/13 09:14:40;;;;;;;;;;;24.20;58.30;;;;;;4934116;28;19926;-71
2023/06/13 09:17:06;;;;;;;;;;;24.30;56.80;;;;;;4946781;28;19945;-72
2023/06/13 09:19:32;;;;;;;;;;;24.40;58.70;;;;;;4942569;28;19954;-72
2023/06/13 09:21:57;;;;;;;;;;;24.50;57.20;;;;;;4952848;28;20388;-72
2023/06/13 09:24:23;;;;;;;;;;;24.60;57.80;;;;;;4947741;28;19917;-72
2023/06/13 09:26:49;;;;;;;;;;;24.70;57.90;;;;;;4962961;28;20371;-71
2023/06/13 09:29:15;;;;;;;;;;;24.70;58.30;;;;;;4961588;28;19918;-72
2023/06/13 09:31:41;;;;;;;;;;;24.80;57.40;;;;;;4948892;28;19918;-72
2023/06/13 09:34:07;;;;;;;;;;;24.90;58.40;;;;;;4947268;28;20366;-72
2023/06/13 09:36:35;;;;;;;;;;;25.00;57.50;;;;;;4949931;28;19928;-72
2023/06/13 09:39:03;;;;;;;;;;;25.10;58.40;;;;;;4963353;28;20306;-72
2023/06/13 09:41:31;;;;;;;;;;;25.20;56.20;;;;;;4939404;28;20451;-72
2023/06/13 09:43:56;;;;;;;;;;;25.20;55.50;;;;;;4950378;28;19917;-72
2023/06/13 09:46:26;;;;;;;;;;;25.20;55.30;;;;;;4939228;28;19926;-72
2023/06/13 09:48:51;;;;;;;;;;;25.30;57.40;;;;;;4967815;28;19921;-72
2023/06/13 09:51:17;;;;;;;;;;;25.40;54.60;;;;;;4944872;28;19922;-72
2023/06/13 09:53:47;;;;;;;;;;;25.40;56.50;;;;;;4949790;28;20149;-72
2023/06/13 09:56:12;;;;;;;;;;;25.50;55.20;;;;;;4944923;28;19923;-72
2023/06/13 09:58:38;;;;;;;;;;;25.50;54.80;;;;;;4964847;28;20273;-72
2023/06/13 10:01:03;;;;;;;;;;;25.60;55.20;;;;;;4941484;28;19918;-72
2023/06/13 10:03:30;;;;;;;;;;;25.60;53.90;;;;;;4948915;28;20763;-72
2023/06/13 10:05:59;;;;;;;;;;;25.60;54.70;;;;;;4959278;28;19919;-72
2023/06/13 10:08:25;;;;;;;;;;;25.50;54.70;;;;;;4957345;28;20013;-73
2023/06/13 10:10:50;;;;;;;;;;;25.60;57.10;;;;;;4947056;28;20017;-73
2023/06/13 10:13:18;;;;;;;;;;;25.60;54.90;;;;;;4953639;28;20041;-72
2023/06/13 10:15:51;;;;;;;;;;;25.60;54.10;;;;;;4926610;28;19985;-71
2023/06/13 10:18:19;;;;;;;;;;;25.70;54.30;;;;;;4954437;28;19954;-72
2023/06/13 10:20:46;;;;;;;;;;;25.80;54.40;;;;;;4948267;28;19918;-72
2023/06/13 10:23:14;;;;;;;;;;;25.90;54.30;;;;;;4974298;28;19918;-72
2023/06/13 10:25:41;;;;;;;;;;;26.00;55.10;;;;;;4949990;28;20117;-72
2023/06/13 10:28:24;;;;;;;;;;;26.10;53.20;;;;;;4945610;28;19918;-72
2023/06/13 10:31:06;;;;;;;;;;;26.20;52.60;;;;;;4966178;28;19922;-72
2023/06/13 10:33:41;;;;;;;;;;;26.20;52.40;;;;;;4965721;28;20453;-72
2023/06/13 10:36:14;;;;;;;;;;;26.40;53.20;;;;;;4937931;28;19918;-72
2023/06/13 10:38:45;;;;;;;;;;;26.40;54.30;;;;;;4969547;28;20146;-72
2023/06/13 10:41:29;;;;;;;;;;;26.40;52.80;;;;;;4949354;28;20395;-72
2023/06/13 10:44:15;;;;;;;;;;;26.50;52.50;;;;;;4962921;28;19986;-72
2023/06/13 10:46:41;;;;;;;;;;;26.50;52.80;;;;;;4952413;28;19969;-71
2023/06/13 10:49:12;;;;;;;;;;;26.50;51.90;;;;;;4968355;28;20030;-72
2023/06/13 10:51:38;;;;;;;;;;;26.50;51.70;;;;;;4950558;28;19922;-72
2023/06/13 10:54:03;;;;;;;;;;;26.60;51.10;;;;;;4971758;28;20013;-72
2023/06/13 10:56:30;;;;;;;;;;;26.60;51.80;;;;;;4953634;28;19972;-72
2023/06/13 10:59:00;;;;;;;;;;;26.70;52.20;;;;;;4971713;28;19925;-72
2023/06/13 11:01:27;;;;;;;;;;;26.80;51.70;;;;;;4951799;28;19926;-72
2023/06/13 11:03:52;;;;;;;;;;;26.90;52.20;;;;;;4953287;28;19919;-72
2023/06/13 11:06:18;;;;;;;;;;;26.90;52.50;;;;;;4944488;28;19969;-72
2023/06/13 11:08:43;;;;;;;;;;;27.00;54.10;;;;;;4969447;28;20056;-72
2023/06/13 11:11:09;;;;;;;;;;;27.10;53.50;;;;;;4939559;28;19926;-72
2023/06/13 11:13:36;;;;;;;;;;;27.10;53.30;;;;;;4948577;28;20020;-72
2023/06/13 11:16:31;;;;;;;;;;;27.20;53.00;;;;;;4947312;28;19925;-72
2023/06/13 11:18:57;;;;;;;;;;;27.20;55.20;;;;;;4935165;28;19922;-72
2023/06/13 11:21:22;;;;;;;;;;;27.30;54.30;;;;;;4959324;28;19940;-72
2023/06/13 11:23:50;;;;;;;;;;;27.30;54.30;;;;;;4966288;28;20402;-71
2023/06/13 11:26:19;;;;;;;;;;;27.30;55.90;;;;;;4963897;28;19969;-71
2023/06/13 11:28:45;;;;;;;;;;;27.40;55.90;;;;;;4952132;28;19948;-71
2023/06/13 11:31:12;;;;;;;;;;;27.40;55.70;;;;;;4962353;28;20719;-71
2023/06/13 11:33:43;;;;;;;;;;;27.40;56.40;;;;;;4961780;28;19995;-72
2023/06/13 11:36:09;;;;;;;;;;;27.50;56.50;;;;;;4938522;28;19953;-72
2023/06/13 11:38:40;;;;;;;;;;;27.50;56.00;;;;;;4937382;28;19918;-72
2023/06/13 11:41:05;;;;;;;;;;;27.50;55.90;;;;;;4956913;28;19918;-71
2023/06/13 11:43:32;;;;;;;;;;;27.40;56.30;;;;;;4947401;28;19941;-73
2023/06/13 11:45:59;;;;;;;;;;;27.40;56.20;;;;;;4959917;28;20443;-73
2023/06/13 11:48:25;;;;;;;;;;;27.40;57.20;;;;;;4947985;28;19956;-71
2023/06/13 11:50:50;;;;;;;;;;;27.50;57.00;;;;;;4969365;28;19918;-72
2023/06/13 11:53:17;;;;;;;;;;;27.50;56.40;;;;;;4966242;28;20467;-71
2023/06/13 11:55:42;;;;;;;;;;;27.60;58.10;;;;;;4966395;28;19925;-72
2023/06/13 11:58:08;;;;;;;;;;;27.60;56.20;;;;;;4953860;28;19918;-71
2023/06/13 12:00:57;;;;;;;;;;;27.60;55.90;;;;;;4944542;28;19940;-72
2023/06/13 12:03:23;;;;;;;;;;;27.40;56.70;;;;;;4945509;28;20147;-71
2023/06/13 12:05:50;;;;;;;;;;;27.40;56.10;;;;;;4948542;28;19917;-71
2023/06/13 12:08:16;;;;;;;;;;;27.40;56.60;;;;;;4947757;28;20015;-71
2023/06/13 12:10:45;;;;;;;;;;;27.40;56.20;;;;;;4971233;28;20421;-72
2023/06/13 12:13:11;;;;;;;;;;;27.40;57.30;;;;;;4947368;28;20381;-71
2023/06/13 12:15:39;;;;;;;;;;;27.60;57.80;;;;;;4951686;28;20017;-71
2023/06/13 12:18:04;;;;;;;;;;;27.70;56.70;;;;;;4962609;28;19953;-72
2023/06/13 12:20:30;;;;;;;;;;;27.80;56.30;;;;;;4954012;28;19926;-72
2023/06/13 12:22:55;;;;;;;;;;;27.80;56.50;;;;;;4965242;28;19963;-72
2023/06/13 12:25:21;;;;;;;;;;;27.90;57.20;;;;;;4948335;28;20020;-71
2023/06/13 12:27:50;;;;;;;;;;;28.00;56.00;;;;;;4957125;28;20312;-72
2023/06/13 12:30:17;;;;;;;;;;;27.90;56.00;;;;;;4943978;28;19929;-71
2023/06/13 12:32:48;;;;;;;;;;;27.80;57.30;;;;;;5004502;23;20394;-84
2023/06/13 12:35:20;;;;;;;;;;;27.90;56.70;;;;;;4988739;28;20455;-84
2023/06/13 12:38:06;;;;;;;;;;;28.00;57.30;;;;;;5001708;28;20299;-84
2023/06/13 12:43:53;;;;;;;;;;;28.10;56.30;;;;;;4947686;28;20000;-83
2023/06/13 12:46:22;;;;;;;;;;;28.10;56.30;;;;;;4983253;28;20488;-83
2023/06/13 12:48:51;;;;;;;;;;;28.10;55.50;;;;;;4996057;28;19996;-83
2023/06/13 12:51:27;;;;;;;;;;;28.10;55.20;;;;;;4968386;28;20005;-84
2023/06/13 12:53:55;;;;;;;;;;;28.00;55.80;;;;;;4988007;28;19921;-84
2023/06/13 12:56:25;;;;;;;;;;;28.10;56.60;;;;;;4983893;28;19960;-85
2023/06/13 12:58:56;;;;;;;;;;;28.30;55.70;;;;;;4980538;28;19925;-84
2023/06/13 13:01:22;;;;;;;;;;;28.30;55.90;;;;;;4986131;28;19925;-83
2023/06/13 13:03:47;;;;;;;;;;;28.50;56.60;;;;;;4986362;28;19917;-84
2023/06/13 13:06:13;;;;;;;;;;;28.60;56.90;;;;;;4979947;28;19953;-81
2023/06/13 13:08:39;;;;;;;;;;;28.60;55.80;;;;;;4998532;28;20189;-85
2023/06/13 13:11:04;;;;;;;;;;;28.70;56.00;;;;;;4983354;28;19917;-84
2023/06/13 13:13:30;;;;;;;;;;;28.70;55.50;;;;;;4998127;28;19926;-84
2023/06/13 13:15:55;;;;;;;;;;;28.70;56.30;;;;;;4994710;28;19914;-85
2023/06/13 13:18:24;;;;;;;;;;;28.70;55.50;;;;;;4996688;28;20269;-82
2023/06/13 13:20:49;;;;;;;;;;;28.60;55.60;;;;;;4994066;28;19918;-84
2023/06/13 13:23:15;;;;;;;;;;;28.50;54.90;;;;;;4983633;28;20417;-86
2023/06/13 13:25:41;;;;;;;;;;;28.50;56.50;;;;;;4977014;28;19988;-84
2023/06/13 13:28:06;;;;;;;;;;;28.60;56.10;;;;;;4964549;28;19976;-84
2023/06/13 13:30:32;;;;;;;;;;;28.60;56.00;;;;;;4978457;28;19960;-85
2023/06/13 13:33:02;;;;;;;;;;;28.50;56.40;;;;;;5001467;28;19967;-84
2023/06/13 13:35:27;;;;;;;;;;;28.50;57.70;;;;;;4987922;28;19921;-85
2023/06/13 13:37:53;;;;;;;;;;;28.70;57.20;;;;;;4980786;28;19985;-83
2023/06/13 13:40:18;;;;;;;;;;;28.80;56.40;;;;;;4987823;28;19917;-83
2023/06/13 13:42:44;;;;;;;;;;;28.80;56.70;;;;;;4971639;28;20289;-81
2023/06/13 13:45:12;;;;;;;;;;;28.80;57.30;;;;;;4985159;28;19918;-83
2023/06/13 13:47:41;;;;;;;;;;;29.00;56.90;;;;;;5005554;28;19917;-86
2023/06/13 13:50:09;;;;;;;;;;;29.10;56.00;;;;;;4994999;28;20413;-82
2023/06/13 13:52:34;;;;;;;;;;;29.20;56.00;;;;;;4987099;28;19973;-85
2023/06/13 13:55:06;;;;;;;;;;;29.20;55.30;;;;;;4981362;28;19926;-84
2023/06/13 13:57:34;;;;;;;;;;;29.30;56.30;;;;;;4991385;28;19925;-82
2023/06/13 14:00:04;;;;;;;;;;;29.30;55.70;;;;;;5001456;28;19918;-84
2023/06/13 14:02:30;;;;;;;;;;;29.40;56.10;;;;;;4974831;28;20020;-84
2023/06/13 14:05:01;;;;;;;;;;;29.70;54.50;;;;;;4979543;28;19917;-85
2023/06/13 14:07:29;;;;;;;;;;;29.90;55.80;;;;;;4982986;28;19972;-85
2023/06/13 14:09:55;;;;;;;;;;;29.80;53.20;;;;;;5003344;28;20330;-84
2023/06/13 14:12:21;;;;;;;;;;;29.60;54.30;;;;;;4982360;28;19941;-84
2023/06/13 14:14:52;;;;;;;;;;;29.50;54.50;;;;;;5008482;28;19921;-84
2023/06/13 14:17:18;;;;;;;;;;;29.50;54.90;;;;;;4998970;28;19917;-85
2023/06/13 14:19:57;;;;;;;;;;;29.50;55.20;;;;;;4965128;28;19918;-85
2023/06/13 14:22:40;;;;;;;;;;;29.60;54.90;;;;;;4973411;28;19988;-85
2023/06/13 14:25:16;;;;;;;;;;;29.50;54.10;;;;;;4968611;28;19918;-84
2023/06/13 14:27:45;;;;;;;;;;;29.50;55.70;;;;;;4982338;28;20194;-84